Time;durP1;ratioP1;P1;durP2;ratioP2;P2;SDS_P1;SDS_P2;PMS_P1;PMS_P2;Temp;Humidity;BMP_temperature;BMP_pressure;BME280_temperature;BME280_humidity;BME280_pressure;Samples;Min_cycle;Max_cycle;Signal;HPM_P1;HPM_P2
2023/10/03 00:00:50;;;;;;;58.58;26.10;;;;;;;;;;5041685;28;20209;-72
2023/10/03 00:03:17;;;;;;;62.53;26.58;;;;;;;;;;5043234;28;20197;-72
2023/10/03 00:05:45;;;;;;;59.40;24.73;;;;;;;;;;5042455;28;20217;-72
2023/10/03 00:08:11;;;;;;;56.35;25.95;;;;;;;;;;5040463;28;20208;-72
2023/10/03 00:10:40;;;;;;;56.42;25.08;;;;;;;;;;5040333;28;20260;-72
2023/10/03 00:13:08;;;;;;;54.05;24.38;;;;;;;;;;5020097;28;20201;-72
2023/10/03 00:15:35;;;;;;;61.53;26.05;;;;;;;;;;5043609;28;20213;-72
2023/10/03 00:18:02;;;;;;;53.63;24.10;;;;;;;;;;5040540;28;20213;-72
2023/10/03 00:20:28;;;;;;;53.05;24.70;;;;;;;;;;5040132;28;20201;-72
2023/10/03 00:22:55;;;;;;;61.35;25.55;;;;;;;;;;5040031;28;20864;-72
2023/10/03 00:25:23;;;;;;;57.72;24.63;;;;;;;;;;5039994;28;20218;-72
2023/10/03 00:27:50;;;;;;;59.08;25.38;;;;;;;;;;5041102;28;20686;-72
2023/10/03 00:30:19;;;;;;;58.05;25.17;;;;;;;;;;5042680;28;20634;-72
2023/10/03 00:32:45;;;;;;;59.28;25.10;;;;;;;;;;5044556;28;20208;-72
2023/10/03 00:35:14;;;;;;;58.67;25.50;;;;;;;;;;5042482;28;20225;-72
2023/10/03 00:37:43;;;;;;;54.85;24.65;;;;;;;;;;5042230;28;20216;-72
2023/10/03 00:40:16;;;;;;;60.30;26.02;;;;;;;;;;5030571;28;20559;-72
2023/10/03 00:42:44;;;;;;;53.30;24.92;;;;;;;;;;5037714;28;20236;-72
2023/10/03 00:45:11;;;;;;;55.22;24.83;;;;;;;;;;5029611;28;20218;-72
2023/10/03 00:47:37;;;;;;;61.05;25.13;;;;;;;;;;5038513;28;20198;-72
2023/10/03 00:50:06;;;;;;;55.40;25.05;;;;;;;;;;5041763;28;23172;-72
2023/10/03 00:52:35;;;;;;;59.38;26.25;;;;;;;;;;5044153;28;20197;-72
2023/10/03 00:55:03;;;;;;;52.90;25.13;;;;;;;;;;5041434;28;20295;-72
2023/10/03 00:57:32;;;;;;;52.70;24.92;;;;;;;;;;5040416;28;20200;-72
2023/10/03 00:59:59;;;;;;;57.97;26.55;;;;;;;;;;5040496;28;20205;-72
2023/10/03 01:02:25;;;;;;;53.50;25.98;;;;;;;;;;5040732;28;20244;-72
2023/10/03 01:04:53;;;;;;;54.20;25.10;;;;;;;;;;5041145;28;20500;-72
2023/10/03 01:07:19;;;;;;;54.55;25.77;;;;;;;;;;5037914;28;20198;-72
2023/10/03 01:09:47;;;;;;;56.10;23.92;;;;;;;;;;5040171;28;20209;-72
2023/10/03 01:12:16;;;;;;;51.67;23.70;;;;;;;;;;5044064;28;20288;-72
2023/10/03 01:14:42;;;;;;;53.92;25.38;;;;;;;;;;5043882;28;20197;-72
2023/10/03 01:17:09;;;;;;;51.17;23.23;;;;;;;;;;5039508;28;20288;-72
2023/10/03 01:19:36;;;;;;;53.80;23.30;;;;;;;;;;5039911;28;20317;-72
2023/10/03 01:22:04;;;;;;;55.17;23.67;;;;;;;;;;5048401;28;20729;-72
2023/10/03 01:24:32;;;;;;;58.65;24.95;;;;;;;;;;5040059;28;20201;-72
2023/10/03 01:26:58;;;;;;;51.67;24.08;;;;;;;;;;5041722;28;20752;-72
2023/10/03 01:29:24;;;;;;;55.80;24.08;;;;;;;;;;5043399;28;20197;-72
2023/10/03 01:31:52;;;;;;;50.53;23.75;;;;;;;;;;5043388;28;20218;-72
2023/10/03 01:34:19;;;;;;;54.53;24.08;;;;;;;;;;5044194;28;20833;-72
2023/10/03 01:36:47;;;;;;;50.33;23.42;;;;;;;;;;5043585;28;20209;-72
2023/10/03 01:39:14;;;;;;;50.83;23.52;;;;;;;;;;5018898;28;20201;-72
2023/10/03 01:41:42;;;;;;;53.08;23.38;;;;;;;;;;5043678;28;20586;-72
2023/10/03 01:44:09;;;;;;;52.53;23.75;;;;;;;;;;5040384;28;20605;-72
2023/10/03 01:46:35;;;;;;;51.88;23.20;;;;;;;;;;5039353;28;20585;-72
2023/10/03 01:49:02;;;;;;;52.10;23.20;;;;;;;;;;5041143;28;20201;-72
2023/10/03 01:51:28;;;;;;;51.13;23.83;;;;;;;;;;5043120;28;20276;-72
2023/10/03 01:53:55;;;;;;;51.00;24.27;;;;;;;;;;5043014;28;20658;-72
2023/10/03 01:56:22;;;;;;;58.08;24.13;;;;;;;;;;5043067;28;20221;-72
2023/10/03 01:58:49;;;;;;;55.25;24.08;;;;;;;;;;5042891;28;20201;-72
2023/10/03 02:01:15;;;;;;;51.42;24.15;;;;;;;;;;5031600;28;20201;-72
2023/10/03 02:03:42;;;;;;;53.20;24.70;;;;;;;;;;5039650;28;20202;-72
2023/10/03 02:06:09;;;;;;;58.83;26.77;;;;;;;;;;5041722;28;20741;-72
2023/10/03 02:08:35;;;;;;;55.30;24.30;;;;;;;;;;5042714;28;20201;-72
2023/10/03 02:11:05;;;;;;;56.25;26.00;;;;;;;;;;5041541;28;20197;-72
2023/10/03 02:13:32;;;;;;;62.35;30.92;;;;;;;;;;5039950;28;20197;-72
2023/10/03 02:15:59;;;;;;;60.67;31.48;;;;;;;;;;5040206;28;20213;-72
2023/10/03 02:18:26;;;;;;;63.05;29.85;;;;;;;;;;5042721;28;20197;-72
2023/10/03 02:20:53;;;;;;;63.03;29.40;;;;;;;;;;5042709;28;20251;-72
2023/10/03 02:23:20;;;;;;;58.25;27.55;;;;;;;;;;5039703;28;20194;-72
2023/10/03 02:25:47;;;;;;;58.28;25.67;;;;;;;;;;5039417;28;20218;-72
2023/10/03 02:28:16;;;;;;;61.47;25.13;;;;;;;;;;5041945;28;20322;-72
2023/10/03 02:30:43;;;;;;;57.42;24.63;;;;;;;;;;5043453;28;20287;-72
2023/10/03 02:33:12;;;;;;;57.67;26.00;;;;;;;;;;5045472;28;20255;-72
2023/10/03 02:35:39;;;;;;;53.70;24.60;;;;;;;;;;5046446;28;20221;-72
2023/10/03 02:38:09;;;;;;;57.67;25.05;;;;;;;;;;5044903;28;20208;-72
2023/10/03 02:40:35;;;;;;;55.70;23.85;;;;;;;;;;5042934;28;20201;-72
2023/10/03 02:43:02;;;;;;;55.20;24.92;;;;;;;;;;5044330;28;20205;-72
2023/10/03 02:45:28;;;;;;;55.85;23.98;;;;;;;;;;5046545;28;20225;-72
2023/10/03 02:47:56;;;;;;;56.95;25.23;;;;;;;;;;5046335;28;20209;-72
2023/10/03 02:50:24;;;;;;;54.40;24.05;;;;;;;;;;5034821;28;20194;-72
2023/10/03 02:52:51;;;;;;;51.25;23.85;;;;;;;;;;5043159;28;20198;-72
2023/10/03 02:55:18;;;;;;;56.10;24.13;;;;;;;;;;5048761;28;20217;-72
2023/10/03 02:57:44;;;;;;;54.28;23.42;;;;;;;;;;5046192;28;20193;-72
2023/10/03 03:00:14;;;;;;;55.20;23.85;;;;;;;;;;5046168;28;20239;-72
2023/10/03 03:02:42;;;;;;;52.95;23.17;;;;;;;;;;5045972;28;20193;-72
2023/10/03 03:05:10;;;;;;;57.22;25.30;;;;;;;;;;5044705;28;20249;-72
2023/10/03 03:07:37;;;;;;;59.25;26.27;;;;;;;;;;5043466;28;20217;-72
2023/10/03 03:10:05;;;;;;;57.20;25.30;;;;;;;;;;5044894;28;20318;-72
2023/10/03 03:12:35;;;;;;;54.25;24.58;;;;;;;;;;5046774;28;20205;-72
2023/10/03 03:15:02;;;;;;;55.65;24.50;;;;;;;;;;5046032;28;20205;-72
2023/10/03 03:17:28;;;;;;;54.05;23.08;;;;;;;;;;5043206;28;20281;-72
2023/10/03 03:19:55;;;;;;;52.95;23.13;;;;;;;;;;5043527;28;20197;-72
2023/10/03 03:22:23;;;;;;;58.53;24.17;;;;;;;;;;5046485;28;20645;-72
2023/10/03 03:24:53;;;;;;;57.92;25.25;;;;;;;;;;5046705;28;20284;-72
2023/10/03 03:27:18;;;;;;;59.00;24.73;;;;;;;;;;5046386;28;20247;-72
2023/10/03 03:30:09;;;;;;;55.38;23.15;;;;;;;;;;5039981;28;20198;-72
2023/10/03 03:32:34;;;;;;;52.88;23.23;;;;;;;;;;5036292;28;20206;-72
2023/10/03 03:35:01;;;;;;;53.15;23.80;;;;;;;;;;5042911;28;20206;-72
2023/10/03 03:37:37;;;;;;;53.13;23.63;;;;;;;;;;5042444;28;20202;-72
2023/10/03 03:40:12;;;;;;;61.67;25.40;;;;;;;;;;5050008;28;20669;-72
2023/10/03 03:42:38;;;;;;;49.47;24.35;;;;;;;;;;5042709;28;20658;-72
2023/10/03 03:45:05;;;;;;;57.20;23.42;;;;;;;;;;5042584;28;20230;-72
2023/10/03 03:47:33;;;;;;;51.60;23.98;;;;;;;;;;5046216;28;20599;-72
2023/10/03 03:50:01;;;;;;;46.60;23.10;;;;;;;;;;5046275;28;20235;-72
2023/10/03 03:52:30;;;;;;;49.10;22.70;;;;;;;;;;5034280;28;20694;-72
2023/10/03 03:54:56;;;;;;;48.65;21.15;;;;;;;;;;5042853;28;20324;-72
2023/10/03 03:57:24;;;;;;;49.70;22.17;;;;;;;;;;5045738;28;20197;-72
2023/10/03 03:59:50;;;;;;;57.38;24.13;;;;;;;;;;5046103;28;20200;-72
2023/10/03 04:02:17;;;;;;;50.67;23.52;;;;;;;;;;5045957;28;20292;-72
2023/10/03 04:04:43;;;;;;;47.78;22.42;;;;;;;;;;5045902;28;20201;-72
2023/10/03 04:07:11;;;;;;;52.83;23.45;;;;;;;;;;5044201;28;20308;-72
2023/10/03 04:09:37;;;;;;;54.25;23.83;;;;;;;;;;5042441;28;20198;-72
2023/10/03 04:12:04;;;;;;;50.38;23.15;;;;;;;;;;5041814;28;20674;-72
2023/10/03 04:14:31;;;;;;;55.45;23.98;;;;;;;;;;5045335;28;20193;-72
2023/10/03 04:16:57;;;;;;;51.17;22.20;;;;;;;;;;5045344;28;20228;-72
2023/10/03 04:19:25;;;;;;;50.67;22.75;;;;;;;;;;5042034;28;20566;-72
2023/10/03 04:21:51;;;;;;;50.30;22.98;;;;;;;;;;5041763;28;20198;-72
2023/10/03 04:24:18;;;;;;;46.50;20.88;;;;;;;;;;5044130;28;20194;-72
2023/10/03 04:26:46;;;;;;;46.88;22.67;;;;;;;;;;5045563;28;20228;-72
2023/10/03 04:29:13;;;;;;;50.67;21.92;;;;;;;;;;5044257;28;20295;-72
2023/10/03 04:31:41;;;;;;;50.10;23.90;;;;;;;;;;5041672;28;20233;-72
2023/10/03 04:34:09;;;;;;;49.42;22.00;;;;;;;;;;5041948;28;20267;-72
2023/10/03 04:36:36;;;;;;;51.88;22.25;;;;;;;;;;5045595;28;20217;-72
2023/10/03 04:39:05;;;;;;;52.17;23.27;;;;;;;;;;5036802;28;20216;-71
2023/10/03 04:41:31;;;;;;;56.00;22.80;;;;;;;;;;5033675;28;20602;-72
2023/10/03 04:43:57;;;;;;;49.00;21.77;;;;;;;;;;5041847;28;20202;-72
2023/10/03 04:46:24;;;;;;;50.80;22.48;;;;;;;;;;5043683;28;20719;-72
2023/10/03 04:48:52;;;;;;;51.50;23.15;;;;;;;;;;5044558;28;20707;-72
2023/10/03 04:51:18;;;;;;;52.50;23.25;;;;;;;;;;5043040;28;20201;-72
2023/10/03 04:53:44;;;;;;;52.25;23.52;;;;;;;;;;5041403;28;20687;-72
2023/10/03 04:56:11;;;;;;;47.63;22.52;;;;;;;;;;5041980;28;20244;-72
2023/10/03 04:58:37;;;;;;;49.05;22.92;;;;;;;;;;5044328;28;20194;-72
2023/10/03 05:01:03;;;;;;;47.78;22.85;;;;;;;;;;5044573;28;20300;-72
2023/10/03 05:03:30;;;;;;;50.95;23.25;;;;;;;;;;5041084;28;20202;-72
2023/10/03 05:06:01;;;;;;;55.83;24.30;;;;;;;;;;5039072;28;20308;-60
2023/10/03 05:08:27;;;;;;;56.47;22.88;;;;;;;;;;5040818;28;20271;-61
2023/10/03 05:10:54;;;;;;;51.22;23.17;;;;;;;;;;5040504;28;20202;-60
2023/10/03 05:13:20;;;;;;;50.55;21.67;;;;;;;;;;5041919;28;20248;-61
2023/10/03 05:15:46;;;;;;;53.65;23.73;;;;;;;;;;5043526;28;20220;-61
2023/10/03 05:18:13;;;;;;;52.40;23.10;;;;;;;;;;5042883;28;20197;-61
2023/10/03 05:20:40;;;;;;;51.95;21.92;;;;;;;;;;5040357;28;20221;-60
2023/10/03 05:23:08;;;;;;;47.42;22.35;;;;;;;;;;5040493;28;20210;-61
2023/10/03 05:25:37;;;;;;;47.08;21.63;;;;;;;;;;5040290;28;20218;-60
2023/10/03 05:28:04;;;;;;;46.53;22.38;;;;;;;;;;5040188;28;20714;-60
2023/10/03 05:30:33;;;;;;;49.28;21.20;;;;;;;;;;5042394;28;20213;-60
2023/10/03 05:32:59;;;;;;;46.85;21.48;;;;;;;;;;5043489;28;20691;-60
2023/10/03 05:35:26;;;;;;;50.45;22.30;;;;;;;;;;5043385;28;20256;-60
2023/10/03 05:37:52;;;;;;;41.95;20.98;;;;;;;;;;5043373;28;20284;-61
2023/10/03 05:40:20;;;;;;;49.85;22.80;;;;;;;;;;5042067;28;20207;-60
2023/10/03 05:42:47;;;;;;;51.33;22.63;;;;;;;;;;5039770;28;20206;-61
2023/10/03 05:45:14;;;;;;;49.40;21.70;;;;;;;;;;5040147;28;20224;-61
2023/10/03 05:47:42;;;;;;;53.15;22.75;;;;;;;;;;5043276;28;20217;-61
2023/10/03 05:50:10;;;;;;;43.33;20.13;;;;;;;;;;5043012;28;20200;-60
2023/10/03 05:52:36;;;;;;;48.60;21.95;;;;;;;;;;5039825;28;20372;-61
2023/10/03 05:55:04;;;;;;;47.25;21.73;;;;;;;;;;5039600;28;20210;-61
2023/10/03 05:57:33;;;;;;;43.42;20.48;;;;;;;;;;5041950;28;20202;-61
2023/10/03 05:59:59;;;;;;;47.15;21.58;;;;;;;;;;5042775;28;20204;-60
2023/10/03 06:02:25;;;;;;;48.25;22.55;;;;;;;;;;5040761;28;20205;-60
2023/10/03 06:04:52;;;;;;;51.28;23.02;;;;;;;;;;5039376;28;20572;-60
2023/10/03 06:07:18;;;;;;;45.97;21.77;;;;;;;;;;5040270;28;20228;-61
2023/10/03 06:09:45;;;;;;;53.90;22.10;;;;;;;;;;5042791;28;20259;-61
2023/10/03 06:12:11;;;;;;;46.80;21.25;;;;;;;;;;5042639;28;20696;-61
2023/10/03 06:14:40;;;;;;;49.60;22.23;;;;;;;;;;5039844;28;20200;-61
2023/10/03 06:17:07;;;;;;;48.83;21.30;;;;;;;;;;5041019;28;20697;-61
2023/10/03 06:19:33;;;;;;;46.25;20.83;;;;;;;;;;5041856;28;20217;-61
2023/10/03 06:21:59;;;;;;;48.28;22.00;;;;;;;;;;5042880;28;20205;-61
2023/10/03 06:24:27;;;;;;;44.08;20.35;;;;;;;;;;5041315;28;20208;-61
2023/10/03 06:26:54;;;;;;;45.72;21.25;;;;;;;;;;5039075;28;20228;-61
2023/10/03 06:29:23;;;;;;;43.67;20.15;;;;;;;;;;5039786;28;20235;-61
2023/10/03 06:31:51;;;;;;;49.35;20.88;;;;;;;;;;5042928;28;20193;-61
2023/10/03 06:34:18;;;;;;;41.28;19.80;;;;;;;;;;5042418;28;20212;-61
2023/10/03 06:36:45;;;;;;;41.95;20.75;;;;;;;;;;5039145;28;20222;-61
2023/10/03 06:39:12;;;;;;;42.97;20.33;;;;;;;;;;5039354;28;20202;-61
2023/10/03 06:41:39;;;;;;;44.33;20.55;;;;;;;;;;5042532;28;20197;-61
2023/10/03 06:44:05;;;;;;;42.30;21.17;;;;;;;;;;5042906;28;20682;-61
2023/10/03 06:46:34;;;;;;;45.38;20.42;;;;;;;;;;5040800;28;20224;-61
2023/10/03 06:49:01;;;;;;;45.63;21.02;;;;;;;;;;5039352;28;20225;-61
2023/10/03 06:51:27;;;;;;;40.17;20.40;;;;;;;;;;5040733;28;20213;-61
2023/10/03 06:53:54;;;;;;;42.72;20.65;;;;;;;;;;5042774;28;20201;-61
2023/10/03 06:56:20;;;;;;;45.85;20.58;;;;;;;;;;5042430;28;20221;-61
2023/10/03 06:58:47;;;;;;;41.42;20.23;;;;;;;;;;5039096;28;20190;-61
2023/10/03 07:01:13;;;;;;;40.95;20.15;;;;;;;;;;5039440;28;20595;-62
2023/10/03 07:03:40;;;;;;;38.47;18.65;;;;;;;;;;5042280;28;20214;-62
2023/10/03 07:06:08;;;;;;;44.15;21.25;;;;;;;;;;5043604;28;20302;-62
2023/10/03 07:08:35;;;;;;;42.53;21.23;;;;;;;;;;5040955;28;20221;-60
2023/10/03 07:11:01;;;;;;;41.65;19.52;;;;;;;;;;5039923;28;20740;-61
2023/10/03 07:13:27;;;;;;;41.78;20.30;;;;;;;;;;5040216;28;20208;-61
2023/10/03 07:15:56;;;;;;;42.60;19.65;;;;;;;;;;5045858;28;20221;-61
2023/10/03 07:18:23;;;;;;;40.88;18.50;;;;;;;;;;5045846;28;20204;-61
2023/10/03 07:20:49;;;;;;;37.85;18.55;;;;;;;;;;5042647;28;20233;-61
2023/10/03 07:23:18;;;;;;;39.97;18.95;;;;;;;;;;5042578;28;20225;-61
2023/10/03 07:25:46;;;;;;;45.08;19.60;;;;;;;;;;5045859;28;20221;-61
2023/10/03 07:28:12;;;;;;;41.88;19.67;;;;;;;;;;5046047;28;20228;-60
2023/10/03 07:30:41;;;;;;;40.58;19.42;;;;;;;;;;5043373;28;20229;-62
2023/10/03 07:33:08;;;;;;;42.40;20.33;;;;;;;;;;5042496;28;20204;-61
2023/10/03 07:35:37;;;;;;;37.45;19.52;;;;;;;;;;5043702;28;20429;-70
2023/10/03 07:38:03;;;;;;;37.75;19.45;;;;;;;;;;5046018;28;20201;-71
2023/10/03 07:40:31;;;;;;;35.03;18.48;;;;;;;;;;5044524;28;20205;-71
2023/10/03 07:42:59;;;;;;;36.95;18.40;;;;;;;;;;5042369;28;20202;-72
2023/10/03 07:45:25;;;;;;;31.65;16.02;;;;;;;;;;5041307;28;20236;-72
2023/10/03 07:47:51;;;;;;;33.95;17.88;;;;;;;;;;5043344;28;20209;-72
2023/10/03 07:50:18;;;;;;;36.33;17.35;;;;;;;;;;5041765;28;20208;-72
2023/10/03 07:52:48;;;;;;;34.47;16.40;;;;;;;;;;5039592;28;20256;-72
2023/10/03 07:55:14;;;;;;;29.77;15.63;;;;;;;;;;5038788;28;20218;-72
2023/10/03 07:57:42;;;;;;;31.80;15.27;;;;;;;;;;5041107;28;20217;-72
2023/10/03 08:00:09;;;;;;;26.38;14.65;;;;;;;;;;5042092;28;20201;-72
2023/10/03 08:02:43;;;;;;;24.10;13.85;;;;;;;;;;5041253;28;20197;-72
2023/10/03 08:05:11;;;;;;;27.90;14.75;;;;;;;;;;5041761;28;20271;-72
2023/10/03 08:07:38;;;;;;;25.10;13.07;;;;;;;;;;5043334;28;20226;-72
2023/10/03 08:10:05;;;;;;;26.17;13.00;;;;;;;;;;5044805;28;20212;-72
2023/10/03 08:12:37;;;;;;;24.63;13.18;;;;;;;;;;5044226;28;20733;-72
2023/10/03 08:15:16;;;;;;;24.58;12.80;;;;;;;;;;5041506;28;20232;-72
2023/10/03 08:17:44;;;;;;;23.13;11.90;;;;;;;;;;5043994;28;20232;-71
2023/10/03 08:20:14;;;;;;;22.85;10.85;;;;;;;;;;5044814;28;20676;-71
2023/10/03 08:22:41;;;;;;;17.95;10.43;;;;;;;;;;5044994;28;20205;-71
2023/10/03 08:25:08;;;;;;;18.73;10.77;;;;;;;;;;5044091;28;20278;-71
2023/10/03 08:27:34;;;;;;;18.70;10.75;;;;;;;;;;5043175;28;20706;-71
2023/10/03 08:30:03;;;;;;;17.60;10.32;;;;;;;;;;5041166;28;20201;-71
2023/10/03 08:32:31;;;;;;;18.80;10.52;;;;;;;;;;5041472;28;20210;-71
2023/10/03 08:34:57;;;;;;;21.00;10.48;;;;;;;;;;5044521;28;20201;-72
2023/10/03 08:37:24;;;;;;;19.90;10.70;;;;;;;;;;5044443;28;20285;-71
2023/10/03 08:39:51;;;;;;;19.40;10.13;;;;;;;;;;5040993;28;20292;-71
2023/10/03 08:42:18;;;;;;;16.77;9.40;;;;;;;;;;5041026;28;20256;-73
2023/10/03 08:44:51;;;;;;;21.00;11.07;;;;;;;;;;5042897;28;20677;-72
2023/10/03 08:47:20;;;;;;;18.15;9.98;;;;;;;;;;5044505;28;20458;-72
2023/10/03 08:49:56;;;;;;;16.77;10.07;;;;;;;;;;5041447;28;20207;-71
2023/10/03 08:52:24;;;;;;;17.73;9.73;;;;;;;;;;5040762;28;20607;-71
2023/10/03 08:54:54;;;;;;;18.75;9.98;;;;;;;;;;5043293;28;20200;-71
2023/10/03 08:57:23;;;;;;;19.33;9.10;;;;;;;;;;5043979;28;20684;-71
2023/10/03 08:59:49;;;;;;;19.38;9.60;;;;;;;;;;5041175;28;20228;-71
2023/10/03 09:02:24;;;;;;;16.65;8.68;;;;;;;;;;5040638;28;20212;-71
2023/10/03 09:04:52;;;;;;;15.85;8.25;;;;;;;;;;5042961;28;20201;-71
2023/10/03 09:07:19;;;;;;;13.10;7.70;;;;;;;;;;5043797;28;20609;-71
2023/10/03 09:09:46;;;;;;;14.98;8.43;;;;;;;;;;5041488;28;20302;-71
2023/10/03 09:12:13;;;;;;;8.13;5.25;;;;;;;;;;5040352;28;20216;-71
2023/10/03 09:14:39;;;;;;;9.45;4.90;;;;;;;;;;5041162;28;20229;-71
2023/10/03 09:17:06;;;;;;;12.05;5.53;;;;;;;;;;5043464;28;20228;-71
2023/10/03 09:19:43;;;;;;;8.05;5.18;;;;;;;;;;5043325;28;20223;-73
2023/10/03 09:22:15;;;;;;;6.55;5.00;;;;;;;;;;5040669;28;20205;-72
2023/10/03 09:24:44;;;;;;;8.40;4.78;;;;;;;;;;5041174;28;20620;-71
2023/10/03 09:27:11;;;;;;;9.05;4.97;;;;;;;;;;5043566;28;20200;-72
2023/10/03 09:29:37;;;;;;;8.77;5.88;;;;;;;;;;5042890;28;20704;-72
2023/10/03 09:32:12;;;;;;;6.57;4.72;;;;;;;;;;5039956;28;20292;-71
2023/10/03 09:34:40;;;;;;;14.73;5.65;;;;;;;;;;5040857;28;20205;-72
2023/10/03 09:37:06;;;;;;;9.15;5.30;;;;;;;;;;5042731;28;20235;-71
2023/10/03 09:39:39;;;;;;;6.88;5.05;;;;;;;;;;5043128;28;20203;-72
2023/10/03 09:42:08;;;;;;;10.02;5.13;;;;;;;;;;5043756;28;20201;-71
2023/10/03 09:44:37;;;;;;;5.57;4.97;;;;;;;;;;5043179;28;20590;-71
2023/10/03 09:47:06;;;;;;;6.25;4.90;;;;;;;;;;5031974;28;20252;-71
2023/10/03 09:49:38;;;;;;;6.20;4.88;;;;;;;;;;5039610;28;20217;-71
2023/10/03 09:52:07;;;;;;;8.95;5.05;;;;;;;;;;5032407;28;20292;-71
2023/10/03 09:54:35;;;;;;;11.93;4.88;;;;;;;;;;5039710;28;20288;-72
2023/10/03 09:57:15;;;;;;;8.88;4.97;;;;;;;;;;5031567;28;20221;-71
2023/10/03 09:59:41;;;;;;;5.13;4.50;;;;;;;;;;5040277;28;20205;-71
2023/10/03 10:02:12;;;;;;;7.47;4.55;;;;;;;;;;5043373;28;20196;-71
2023/10/03 10:04:39;;;;;;;5.93;4.55;;;;;;;;;;5042987;28;20283;-71
2023/10/03 10:07:16;;;;;;;6.47;4.50;;;;;;;;;;5039269;28;20709;-71
2023/10/03 10:09:47;;;;;;;5.82;4.30;;;;;;;;;;5039805;28;20243;-71
2023/10/03 10:12:15;;;;;;;7.55;4.18;;;;;;;;;;5043195;28;20200;-71
2023/10/03 10:15:00;;;;;;;8.32;4.50;;;;;;;;;;5042418;28;20203;-71
2023/10/03 10:17:40;;;;;;;7.28;4.43;;;;;;;;;;5039593;28;20236;-71
2023/10/03 10:20:09;;;;;;;4.95;4.07;;;;;;;;;;5031589;28;20200;-71
2023/10/03 10:22:54;;;;;;;8.32;4.00;;;;;;;;;;5039686;28;20208;-71
2023/10/03 10:25:26;;;;;;;7.05;4.22;;;;;;;;;;5033874;28;20221;-71
2023/10/03 10:28:00;;;;;;;9.05;4.07;;;;;;;;;;5041285;28;20247;-72
2023/10/03 10:30:26;;;;;;;8.55;4.35;;;;;;;;;;5042548;28;20208;-72
2023/10/03 10:33:08;;;;;;;5.18;4.13;;;;;;;;;;5040987;28;20196;-72
2023/10/03 10:35:52;;;;;;;7.03;4.18;;;;;;;;;;5039069;28;20225;-72
2023/10/03 10:38:18;;;;;;;5.85;4.07;;;;;;;;;;5032912;28;20522;-72
2023/10/03 10:41:00;;;;;;;10.45;4.40;;;;;;;;;;5039710;28;20201;-72
2023/10/03 10:43:28;;;;;;;5.10;4.22;;;;;;;;;;5029739;28;20287;-72
2023/10/03 10:46:10;;;;;;;6.82;4.20;;;;;;;;;;5040544;28;20231;-72
2023/10/03 10:48:40;;;;;;;11.15;4.28;;;;;;;;;;5040483;28;20227;-72
2023/10/03 10:51:07;;;;;;;6.45;3.97;;;;;;;;;;5042908;28;20281;-72
2023/10/03 10:53:38;;;;;;;9.15;4.38;;;;;;;;;;5042866;28;20220;-72
2023/10/03 10:56:06;;;;;;;4.95;4.07;;;;;;;;;;5045911;28;20244;-72
2023/10/03 10:58:44;;;;;;;5.50;4.28;;;;;;;;;;5045935;28;20197;-72
2023/10/03 11:01:12;;;;;;;9.27;4.20;;;;;;;;;;5035244;28;20201;-72
2023/10/03 11:03:38;;;;;;;6.63;4.38;;;;;;;;;;5042747;28;20201;-72
2023/10/03 11:06:14;;;;;;;5.70;4.15;;;;;;;;;;5045351;28;20216;-72
2023/10/03 11:08:43;;;;;;;5.68;4.00;;;;;;;;;;5045739;28;20688;-72
2023/10/03 11:11:09;;;;;;;6.82;4.43;;;;;;;;;;5034738;28;20208;-72
2023/10/03 11:13:44;;;;;;;6.85;4.45;;;;;;;;;;5042657;28;20201;-72
2023/10/03 11:16:11;;;;;;;6.75;4.90;;;;;;;;;;5034572;28;20225;-72
2023/10/03 11:18:38;;;;;;;4.22;3.63;;;;;;;;;;5042126;28;20189;-72
2023/10/03 11:21:04;;;;;;;7.10;4.53;;;;;;;;;;5045103;28;20213;-72
2023/10/03 11:23:31;;;;;;;5.53;4.90;;;;;;;;;;5045908;28;20202;-71
2023/10/03 11:25:57;;;;;;;8.52;4.35;;;;;;;;;;5043710;28;20700;-72
2023/10/03 11:28:24;;;;;;;7.13;4.47;;;;;;;;;;5041843;28;20689;-72
2023/10/03 11:31:02;;;;;;;8.38;4.38;;;;;;;;;;5042742;28;20201;-72
2023/10/03 11:33:28;;;;;;;6.65;4.68;;;;;;;;;;5045841;28;20211;-72
2023/10/03 11:35:55;;;;;;;7.50;3.92;;;;;;;;;;5044250;28;20212;-72
2023/10/03 11:38:21;;;;;;;5.93;3.78;;;;;;;;;;5041886;28;20194;-72
2023/10/03 11:40:49;;;;;;;10.25;4.70;;;;;;;;;;5042121;28;20201;-72
2023/10/03 11:43:20;;;;;;;8.90;4.65;;;;;;;;;;5045400;28;20307;-71
2023/10/03 11:45:54;;;;;;;6.72;4.55;;;;;;;;;;5044898;28;20232;-72
2023/10/03 11:48:22;;;;;;;5.03;4.53;;;;;;;;;;5041695;28;20232;-71
2023/10/03 11:50:49;;;;;;;7.63;6.07;;;;;;;;;;5042115;28;20194;-71
2023/10/03 11:53:15;;;;;;;7.78;4.88;;;;;;;;;;5045359;28;20383;-72
2023/10/03 11:55:42;;;;;;;9.68;4.50;;;;;;;;;;5045114;28;20225;-71
2023/10/03 11:58:10;;;;;;;5.80;4.97;;;;;;;;;;5042043;28;20205;-71
2023/10/03 12:00:37;;;;;;;7.70;4.63;;;;;;;;;;5040715;28;20197;-71
2023/10/03 12:03:05;;;;;;;8.98;4.80;;;;;;;;;;5043540;28;20666;-71
2023/10/03 12:05:33;;;;;;;7.05;4.90;;;;;;;;;;5044627;28;20728;-71
2023/10/03 12:08:03;;;;;;;7.70;4.07;;;;;;;;;;5043185;28;20661;-71
2023/10/03 12:10:31;;;;;;;5.90;4.85;;;;;;;;;;5041552;28;20213;-71
2023/10/03 12:12:58;;;;;;;9.88;4.50;;;;;;;;;;5043088;28;20288;-71
2023/10/03 12:15:24;;;;;;;9.70;5.20;;;;;;;;;;5045050;28;20217;-71
2023/10/03 12:17:51;;;;;;;9.85;5.00;;;;;;;;;;5044896;28;20196;-71
2023/10/03 12:20:19;;;;;;;7.53;4.95;;;;;;;;;;5041385;28;20205;-71
2023/10/03 12:22:47;;;;;;;10.23;5.30;;;;;;;;;;5041496;28;20209;-72
2023/10/03 12:25:15;;;;;;;5.90;4.30;;;;;;;;;;5044212;28;20216;-72
2023/10/03 12:27:42;;;;;;;5.93;4.75;;;;;;;;;;5045063;28;20285;-72
2023/10/03 12:32:41;;;;;;;10.60;4.80;;;;;;;;;;5011916;28;20210;-75
2023/10/03 12:35:08;;;;;;;9.02;4.32;;;;;;;;;;5010790;28;20241;-74
2023/10/03 12:37:34;;;;;;;9.85;4.45;;;;;;;;;;5001687;28;20257;-74
2023/10/03 12:40:04;;;;;;;8.98;5.22;;;;;;;;;;5002895;28;20285;-74
2023/10/03 12:42:31;;;;;;;11.75;5.38;;;;;;;;;;5005227;28;20221;-74
2023/10/03 12:45:00;;;;;;;11.20;4.97;;;;;;;;;;5004619;28;20248;-74
2023/10/03 12:47:26;;;;;;;11.88;5.22;;;;;;;;;;5001442;28;20731;-74
2023/10/03 12:49:53;;;;;;;8.35;4.88;;;;;;;;;;5001155;28;20225;-74
2023/10/03 12:52:19;;;;;;;7.63;5.00;;;;;;;;;;5005139;28;20209;-75
2023/10/03 12:54:47;;;;;;;8.65;5.20;;;;;;;;;;5005166;28;20248;-75
2023/10/03 12:57:14;;;;;;;9.80;4.95;;;;;;;;;;5002166;28;20566;-74
2023/10/03 12:59:44;;;;;;;8.65;5.63;;;;;;;;;;5001097;28;20241;-74
2023/10/03 13:02:12;;;;;;;15.73;5.45;;;;;;;;;;5003596;28;20209;-74
2023/10/03 13:04:40;;;;;;;8.43;5.07;;;;;;;;;;4998477;28;20261;-74
2023/10/03 13:07:08;;;;;;;5.95;5.03;;;;;;;;;;5003164;28;20229;-74
2023/10/03 13:09:35;;;;;;;9.15;5.43;;;;;;;;;;5004395;28;20217;-74
2023/10/03 13:12:03;;;;;;;10.48;5.82;;;;;;;;;;5003388;28;20202;-74
2023/10/03 13:14:31;;;;;;;9.40;5.57;;;;;;;;;;5001087;28;20687;-74
2023/10/03 13:17:00;;;;;;;7.97;5.03;;;;;;;;;;5001465;28;20276;-74
2023/10/03 13:19:27;;;;;;;9.10;5.75;;;;;;;;;;5004195;28;20195;-74
2023/10/03 13:21:53;;;;;;;15.85;5.35;;;;;;;;;;5004470;28;20340;-74
2023/10/03 13:24:20;;;;;;;8.90;4.95;;;;;;;;;;5001133;28;20198;-74
2023/10/03 13:26:46;;;;;;;7.30;5.70;;;;;;;;;;5000961;28;20638;-74
2023/10/03 13:29:12;;;;;;;9.57;6.18;;;;;;;;;;5003752;28;20219;-74
2023/10/03 13:31:40;;;;;;;12.02;5.47;;;;;;;;;;5006198;28;20202;-74
2023/10/03 13:34:06;;;;;;;9.85;5.05;;;;;;;;;;5004671;28;20598;-74
2023/10/03 13:36:32;;;;;;;7.30;5.20;;;;;;;;;;5004329;28;20220;-74
2023/10/03 13:38:59;;;;;;;7.13;5.43;;;;;;;;;;5003724;28;20209;-74
2023/10/03 13:41:27;;;;;;;6.50;4.90;;;;;;;;;;5000771;28;20203;-74
2023/10/03 13:43:54;;;;;;;12.30;5.88;;;;;;;;;;5000888;28;20205;-74
2023/10/03 13:46:21;;;;;;;10.45;5.55;;;;;;;;;;5003869;28;20218;-73
2023/10/03 13:48:51;;;;;;;8.27;5.75;;;;;;;;;;5004088;28;20194;-74
2023/10/03 13:51:17;;;;;;;8.35;5.85;;;;;;;;;;5001333;28;20304;-74
2023/10/03 13:53:43;;;;;;;6.82;5.85;;;;;;;;;;5000890;28;20209;-73
2023/10/03 13:56:10;;;;;;;12.18;6.05;;;;;;;;;;5002197;28;20314;-74
2023/10/03 13:58:36;;;;;;;7.47;6.10;;;;;;;;;;4999078;28;20213;-73
2023/10/03 14:01:03;;;;;;;7.18;5.82;;;;;;;;;;5001060;28;20195;-73
2023/10/03 14:03:31;;;;;;;11.43;6.05;;;;;;;;;;5004406;28;20285;-74
2023/10/03 14:05:59;;;;;;;10.48;5.80;;;;;;;;;;5004272;28;20315;-74
2023/10/03 14:08:26;;;;;;;11.02;6.40;;;;;;;;;;4992655;28;20199;-74
2023/10/03 14:10:52;;;;;;;9.70;5.85;;;;;;;;;;5000615;28;20269;-73
2023/10/03 14:13:19;;;;;;;7.38;6.05;;;;;;;;;;5003085;28;20644;-73
2023/10/03 14:15:46;;;;;;;8.52;5.80;;;;;;;;;;5003659;28;20218;-73
2023/10/03 14:18:12;;;;;;;12.52;6.05;;;;;;;;;;5002246;28;20288;-74
2023/10/03 14:20:39;;;;;;;8.13;5.68;;;;;;;;;;5000579;28;20195;-73
2023/10/03 14:23:10;;;;;;;9.32;5.25;;;;;;;;;;5002060;28;20206;-73
2023/10/03 14:25:36;;;;;;;9.52;5.30;;;;;;;;;;5007939;28;20218;-74
2023/10/03 14:28:04;;;;;;;10.15;5.32;;;;;;;;;;5007495;28;20201;-74
2023/10/03 14:30:31;;;;;;;7.80;5.03;;;;;;;;;;5004163;28;20217;-74
2023/10/03 14:32:57;;;;;;;7.38;4.90;;;;;;;;;;5004422;28;20747;-74